sensor_id;sensor_type;location;lat;lon;timestamp;P1;durP1;ratioP1;P2;durP2;ratioP2
23384;SDS011;11865;45.394;10.978;2023-04-24T00:02:12;22.33;;;11.10;;
23384;SDS011;11865;45.394;10.978;2023-04-24T00:04:41;15.32;;;10.48;;
23384;SDS011;11865;45.394;10.978;2023-04-24T00:07:11;15.23;;;9.80;;
23384;SDS011;11865;45.394;10.978;2023-04-24T00:09:39;14.65;;;10.63;;
23384;SDS011;11865;45.394;10.978;2023-04-24T00:12:07;16.23;;;10.10;;
23384;SDS011;11865;45.394;10.978;2023-04-24T00:14:35;14.40;;;11.00;;
23384;SDS011;11865;45.394;10.978;2023-04-24T00:17:03;17.83;;;11.05;;
23384;SDS011;11865;45.394;10.978;2023-04-24T00:19:30;14.35;;;10.70;;
23384;SDS011;11865;45.394;10.978;2023-04-24T00:21:58;14.60;;;10.88;;
23384;SDS011;11865;45.394;10.978;2023-04-24T00:24:25;15.57;;;10.80;;
23384;SDS011;11865;45.394;10.978;2023-04-24T00:26:53;18.02;;;11.75;;
23384;SDS011;11865;45.394;10.978;2023-04-24T00:29:20;17.35;;;12.40;;
23384;SDS011;11865;45.394;10.978;2023-04-24T00:31:48;17.38;;;11.95;;
23384;SDS011;11865;45.394;10.978;2023-04-24T00:34:15;20.02;;;12.82;;
23384;SDS011;11865;45.394;10.978;2023-04-24T00:36:43;16.50;;;12.15;;
23384;SDS011;11865;45.394;10.978;2023-04-24T00:39:10;19.30;;;12.48;;
23384;SDS011;11865;45.394;10.978;2023-04-24T00:41:38;19.25;;;12.68;;
23384;SDS011;11865;45.394;10.978;2023-04-24T00:44:05;19.90;;;13.65;;
23384;SDS011;11865;45.394;10.978;2023-04-24T00:46:32;18.73;;;13.02;;
23384;SDS011;11865;45.394;10.978;2023-04-24T00:49:00;19.48;;;13.85;;
23384;SDS011;11865;45.394;10.978;2023-04-24T00:51:28;19.23;;;13.23;;
23384;SDS011;11865;45.394;10.978;2023-04-24T00:53:57;21.40;;;14.40;;
23384;SDS011;11865;45.394;10.978;2023-04-24T00:56:25;23.45;;;14.15;;
23384;SDS011;11865;45.394;10.978;2023-04-24T00:58:53;18.95;;;13.82;;
23384;SDS011;11865;45.394;10.978;2023-04-24T01:01:22;22.92;;;13.60;;
23384;SDS011;11865;45.394;10.978;2023-04-24T01:03:50;21.17;;;14.68;;
23384;SDS011;11865;45.394;10.978;2023-04-24T01:06:19;23.40;;;14.00;;
23384;SDS011;11865;45.394;10.978;2023-04-24T01:08:48;22.05;;;14.75;;
23384;SDS011;11865;45.394;10.978;2023-04-24T01:11:16;22.42;;;15.05;;
23384;SDS011;11865;45.394;10.978;2023-04-24T01:13:45;21.45;;;15.05;;
23384;SDS011;11865;45.394;10.978;2023-04-24T01:16:14;21.05;;;14.63;;
23384;SDS011;11865;45.394;10.978;2023-04-24T01:18:44;22.88;;;14.15;;
23384;SDS011;11865;45.394;10.978;2023-04-24T01:21:13;20.38;;;14.27;;
23384;SDS011;11865;45.394;10.978;2023-04-24T01:23:43;25.60;;;14.27;;
23384;SDS011;11865;45.394;10.978;2023-04-24T01:26:12;23.35;;;15.20;;
23384;SDS011;11865;45.394;10.978;2023-04-24T01:28:46;23.80;;;15.50;;
23384;SDS011;11865;45.394;10.978;2023-04-24T01:31:15;21.08;;;15.43;;
23384;SDS011;11865;45.394;10.978;2023-04-24T01:33:42;25.23;;;16.90;;
23384;SDS011;11865;45.394;10.978;2023-04-24T01:36:10;22.80;;;17.23;;
23384;SDS011;11865;45.394;10.978;2023-04-24T01:38:38;26.10;;;16.95;;
23384;SDS011;11865;45.394;10.978;2023-04-24T01:41:06;25.23;;;17.85;;
23384;SDS011;11865;45.394;10.978;2023-04-24T01:43:33;23.83;;;17.88;;
23384;SDS011;11865;45.394;10.978;2023-04-24T01:46:01;25.75;;;16.70;;
23384;SDS011;11865;45.394;10.978;2023-04-24T01:48:29;26.08;;;17.60;;
23384;SDS011;11865;45.394;10.978;2023-04-24T01:50:57;25.75;;;17.20;;
23384;SDS011;11865;45.394;10.978;2023-04-24T01:53:24;25.50;;;17.30;;
23384;SDS011;11865;45.394;10.978;2023-04-24T01:55:51;23.92;;;17.33;;
23384;SDS011;11865;45.394;10.978;2023-04-24T01:58:19;25.17;;;17.20;;
23384;SDS011;11865;45.394;10.978;2023-04-24T02:00:46;27.95;;;17.05;;
23384;SDS011;11865;45.394;10.978;2023-04-24T02:03:14;25.52;;;17.60;;
23384;SDS011;11865;45.394;10.978;2023-04-24T02:05:43;26.42;;;18.25;;
23384;SDS011;11865;45.394;10.978;2023-04-24T02:08:12;28.95;;;16.88;;
23384;SDS011;11865;45.394;10.978;2023-04-24T02:10:39;24.52;;;17.40;;
23384;SDS011;11865;45.394;10.978;2023-04-24T02:13:06;27.83;;;17.52;;
23384;SDS011;11865;45.394;10.978;2023-04-24T02:15:34;27.85;;;16.48;;
23384;SDS011;11865;45.394;10.978;2023-04-24T02:18:03;21.30;;;15.85;;
23384;SDS011;11865;45.394;10.978;2023-04-24T02:20:31;25.35;;;16.38;;
23384;SDS011;11865;45.394;10.978;2023-04-24T02:23:01;25.08;;;17.55;;
23384;SDS011;11865;45.394;10.978;2023-04-24T02:25:28;26.02;;;17.20;;
23384;SDS011;11865;45.394;10.978;2023-04-24T02:27:56;26.55;;;19.15;;
23384;SDS011;11865;45.394;10.978;2023-04-24T02:30:23;25.30;;;18.30;;
23384;SDS011;11865;45.394;10.978;2023-04-24T02:32:50;25.50;;;18.20;;
23384;SDS011;11865;45.394;10.978;2023-04-24T02:35:18;26.20;;;17.55;;
23384;SDS011;11865;45.394;10.978;2023-04-24T02:37:46;28.60;;;18.60;;
23384;SDS011;11865;45.394;10.978;2023-04-24T02:40:13;25.25;;;18.73;;
23384;SDS011;11865;45.394;10.978;2023-04-24T02:42:41;24.95;;;17.77;;
23384;SDS011;11865;45.394;10.978;2023-04-24T02:45:08;33.92;;;19.13;;
23384;SDS011;11865;45.394;10.978;2023-04-24T02:47:36;29.02;;;19.15;;
23384;SDS011;11865;45.394;10.978;2023-04-24T02:50:04;27.92;;;18.40;;
23384;SDS011;11865;45.394;10.978;2023-04-24T02:52:32;26.88;;;18.98;;
23384;SDS011;11865;45.394;10.978;2023-04-24T02:55:00;30.85;;;18.90;;
23384;SDS011;11865;45.394;10.978;2023-04-24T02:57:27;26.52;;;19.17;;
23384;SDS011;11865;45.394;10.978;2023-04-24T02:59:55;30.00;;;19.92;;
23384;SDS011;11865;45.394;10.978;2023-04-24T03:02:22;32.25;;;20.00;;
23384;SDS011;11865;45.394;10.978;2023-04-24T03:04:50;26.15;;;19.80;;
23384;SDS011;11865;45.394;10.978;2023-04-24T03:07:17;31.52;;;20.52;;
23384;SDS011;11865;45.394;10.978;2023-04-24T03:09:47;31.38;;;20.50;;
23384;SDS011;11865;45.394;10.978;2023-04-24T03:12:14;27.20;;;18.48;;
23384;SDS011;11865;45.394;10.978;2023-04-24T03:14:44;24.85;;;18.33;;
23384;SDS011;11865;45.394;10.978;2023-04-24T03:17:12;24.90;;;18.70;;
23384;SDS011;11865;45.394;10.978;2023-04-24T03:19:39;27.05;;;18.90;;
23384;SDS011;11865;45.394;10.978;2023-04-24T03:22:09;28.58;;;20.45;;
23384;SDS011;11865;45.394;10.978;2023-04-24T03:24:41;33.15;;;20.42;;
23384;SDS011;11865;45.394;10.978;2023-04-24T03:27:08;28.95;;;20.88;;
23384;SDS011;11865;45.394;10.978;2023-04-24T03:29:52;29.75;;;18.95;;
23384;SDS011;11865;45.394;10.978;2023-04-24T03:32:27;28.27;;;19.27;;
23384;SDS011;11865;45.394;10.978;2023-04-24T03:34:54;28.63;;;19.52;;
23384;SDS011;11865;45.394;10.978;2023-04-24T03:37:22;28.67;;;18.00;;
23384;SDS011;11865;45.394;10.978;2023-04-24T03:40:00;34.15;;;18.73;;
23384;SDS011;11865;45.394;10.978;2023-04-24T03:42:28;29.70;;;19.67;;
23384;SDS011;11865;45.394;10.978;2023-04-24T03:44:56;26.02;;;17.80;;
23384;SDS011;11865;45.394;10.978;2023-04-24T03:47:29;30.58;;;18.92;;
23384;SDS011;11865;45.394;10.978;2023-04-24T03:50:00;29.27;;;20.05;;
23384;SDS011;11865;45.394;10.978;2023-04-24T03:52:28;25.65;;;19.30;;
23384;SDS011;11865;45.394;10.978;2023-04-24T03:54:56;30.15;;;19.52;;
23384;SDS011;11865;45.394;10.978;2023-04-24T03:57:25;34.67;;;19.77;;
23384;SDS011;11865;45.394;10.978;2023-04-24T04:00:10;30.55;;;19.77;;
23384;SDS011;11865;45.394;10.978;2023-04-24T04:02:43;31.80;;;19.58;;
23384;SDS011;11865;45.394;10.978;2023-04-24T04:05:11;26.92;;;19.33;;
23384;SDS011;11865;45.394;10.978;2023-04-24T04:07:38;26.08;;;17.52;;
23384;SDS011;11865;45.394;10.978;2023-04-24T04:10:06;30.38;;;17.45;;
23384;SDS011;11865;45.394;10.978;2023-04-24T04:12:36;28.40;;;17.95;;
23384;SDS011;11865;45.394;10.978;2023-04-24T04:15:04;27.77;;;17.55;;
23384;SDS011;11865;45.394;10.978;2023-04-24T04:17:33;27.13;;;18.35;;
23384;SDS011;11865;45.394;10.978;2023-04-24T04:20:04;27.63;;;18.25;;
23384;SDS011;11865;45.394;10.978;2023-04-24T04:22:38;25.70;;;18.15;;
23384;SDS011;11865;45.394;10.978;2023-04-24T04:25:11;31.05;;;19.95;;
23384;SDS011;11865;45.394;10.978;2023-04-24T04:27:41;29.40;;;19.73;;
23384;SDS011;11865;45.394;10.978;2023-04-24T04:30:10;30.00;;;19.95;;
23384;SDS011;11865;45.394;10.978;2023-04-24T04:32:48;31.15;;;21.55;;
23384;SDS011;11865;45.394;10.978;2023-04-24T04:35:15;33.05;;;21.85;;
23384;SDS011;11865;45.394;10.978;2023-04-24T04:37:43;34.10;;;23.35;;
23384;SDS011;11865;45.394;10.978;2023-04-24T04:40:27;38.63;;;24.08;;
23384;SDS011;11865;45.394;10.978;2023-04-24T04:43:00;34.55;;;24.50;;
23384;SDS011;11865;45.394;10.978;2023-04-24T04:45:32;33.65;;;23.83;;
23384;SDS011;11865;45.394;10.978;2023-04-24T04:48:27;30.25;;;22.38;;
23384;SDS011;11865;45.394;10.978;2023-04-24T04:50:57;33.67;;;21.90;;
23384;SDS011;11865;45.394;10.978;2023-04-24T04:53:26;34.65;;;22.73;;
23384;SDS011;11865;45.394;10.978;2023-04-24T04:55:53;29.33;;;20.95;;
23384;SDS011;11865;45.394;10.978;2023-04-24T04:58:26;31.90;;;19.35;;
23384;SDS011;11865;45.394;10.978;2023-04-24T05:00:57;31.40;;;20.98;;
23384;SDS011;11865;45.394;10.978;2023-04-24T05:06:04;34.72;;;23.60;;
23384;SDS011;11865;45.394;10.978;2023-04-24T05:08:35;35.58;;;23.58;;
23384;SDS011;11865;45.394;10.978;2023-04-24T05:11:05;33.70;;;22.08;;
23384;SDS011;11865;45.394;10.978;2023-04-24T05:13:33;32.35;;;21.50;;
23384;SDS011;11865;45.394;10.978;2023-04-24T05:16:16;39.55;;;24.33;;
23384;SDS011;11865;45.394;10.978;2023-04-24T05:18:44;36.80;;;21.70;;
23384;SDS011;11865;45.394;10.978;2023-04-24T05:21:14;33.38;;;22.55;;
23384;SDS011;11865;45.394;10.978;2023-04-24T05:23:45;28.80;;;21.10;;
23384;SDS011;11865;45.394;10.978;2023-04-24T05:26:16;28.03;;;19.87;;
23384;SDS011;11865;45.394;10.978;2023-04-24T05:28:44;31.42;;;20.63;;
23384;SDS011;11865;45.394;10.978;2023-04-24T05:31:12;28.48;;;19.63;;
23384;SDS011;11865;45.394;10.978;2023-04-24T05:33:40;34.35;;;23.45;;
23384;SDS011;11865;45.394;10.978;2023-04-24T05:36:07;30.75;;;20.67;;
23384;SDS011;11865;45.394;10.978;2023-04-24T05:38:35;31.35;;;21.10;;
23384;SDS011;11865;45.394;10.978;2023-04-24T05:41:03;29.35;;;20.25;;
23384;SDS011;11865;45.394;10.978;2023-04-24T05:43:31;27.67;;;18.55;;
23384;SDS011;11865;45.394;10.978;2023-04-24T05:45:59;25.55;;;19.08;;
23384;SDS011;11865;45.394;10.978;2023-04-24T05:48:27;26.00;;;18.73;;
23384;SDS011;11865;45.394;10.978;2023-04-24T05:50:54;25.73;;;17.23;;
23384;SDS011;11865;45.394;10.978;2023-04-24T05:53:22;20.27;;;14.80;;
23384;SDS011;11865;45.394;10.978;2023-04-24T05:55:50;17.70;;;12.43;;
23384;SDS011;11865;45.394;10.978;2023-04-24T05:58:18;12.27;;;9.27;;
23384;SDS011;11865;45.394;10.978;2023-04-24T06:00:46;16.77;;;11.13;;
23384;SDS011;11865;45.394;10.978;2023-04-24T06:03:14;13.10;;;9.57;;
23384;SDS011;11865;45.394;10.978;2023-04-24T06:05:42;11.43;;;8.85;;
23384;SDS011;11865;45.394;10.978;2023-04-24T06:08:10;13.23;;;9.48;;
23384;SDS011;11865;45.394;10.978;2023-04-24T06:10:39;12.32;;;9.15;;
23384;SDS011;11865;45.394;10.978;2023-04-24T06:13:08;11.82;;;9.25;;
23384;SDS011;11865;45.394;10.978;2023-04-24T06:15:38;13.75;;;9.98;;
23384;SDS011;11865;45.394;10.978;2023-04-24T06:18:10;15.63;;;10.57;;
23384;SDS011;11865;45.394;10.978;2023-04-24T06:20:40;15.13;;;10.82;;
23384;SDS011;11865;45.394;10.978;2023-04-24T06:23:09;11.65;;;9.32;;
23384;SDS011;11865;45.394;10.978;2023-04-24T06:25:36;10.70;;;8.40;;
23384;SDS011;11865;45.394;10.978;2023-04-24T06:28:05;11.75;;;8.60;;
23384;SDS011;11865;45.394;10.978;2023-04-24T06:30:32;9.55;;;7.28;;
23384;SDS011;11865;45.394;10.978;2023-04-24T06:33:00;6.47;;;5.45;;
23384;SDS011;11865;45.394;10.978;2023-04-24T06:35:44;10.68;;;5.82;;
23384;SDS011;11865;45.394;10.978;2023-04-24T06:38:12;6.25;;;5.40;;
23384;SDS011;11865;45.394;10.978;2023-04-24T06:40:39;8.13;;;6.10;;
23384;SDS011;11865;45.394;10.978;2023-04-24T06:43:07;10.93;;;6.57;;
23384;SDS011;11865;45.394;10.978;2023-04-24T06:45:34;13.02;;;7.38;;
23384;SDS011;11865;45.394;10.978;2023-04-24T06:48:02;10.70;;;8.23;;
23384;SDS011;11865;45.394;10.978;2023-04-24T06:50:29;14.50;;;10.60;;
23384;SDS011;11865;45.394;10.978;2023-04-24T06:52:57;15.95;;;10.68;;
23384;SDS011;11865;45.394;10.978;2023-04-24T06:55:24;16.08;;;11.35;;
23384;SDS011;11865;45.394;10.978;2023-04-24T06:57:52;12.50;;;9.48;;
23384;SDS011;11865;45.394;10.978;2023-04-24T07:00:19;13.05;;;9.30;;
23384;SDS011;11865;45.394;10.978;2023-04-24T07:02:47;11.23;;;8.90;;
23384;SDS011;11865;45.394;10.978;2023-04-24T07:05:15;12.55;;;9.57;;
23384;SDS011;11865;45.394;10.978;2023-04-24T07:07:42;16.13;;;10.95;;
23384;SDS011;11865;45.394;10.978;2023-04-24T07:10:11;16.55;;;11.90;;
23384;SDS011;11865;45.394;10.978;2023-04-24T07:12:38;15.20;;;10.73;;
23384;SDS011;11865;45.394;10.978;2023-04-24T07:15:06;10.82;;;7.45;;
23384;SDS011;11865;45.394;10.978;2023-04-24T07:17:35;8.38;;;4.93;;
23384;SDS011;11865;45.394;10.978;2023-04-24T07:20:02;5.07;;;3.65;;
23384;SDS011;11865;45.394;10.978;2023-04-24T07:22:30;3.22;;;1.90;;
23384;SDS011;11865;45.394;10.978;2023-04-24T07:24:58;1.45;;;1.10;;
23384;SDS011;11865;45.394;10.978;2023-04-24T07:27:25;1.73;;;0.95;;
23384;SDS011;11865;45.394;10.978;2023-04-24T07:29:53;4.30;;;0.88;;
23384;SDS011;11865;45.394;10.978;2023-04-24T07:32:20;1.80;;;0.80;;
23384;SDS011;11865;45.394;10.978;2023-04-24T07:34:48;0.40;;;0.40;;
23384;SDS011;11865;45.394;10.978;2023-04-24T07:37:15;0.60;;;0.60;;
23384;SDS011;11865;45.394;10.978;2023-04-24T07:39:43;0.70;;;0.28;;
23384;SDS011;11865;45.394;10.978;2023-04-24T07:42:11;0.55;;;0.40;;
23384;SDS011;11865;45.394;10.978;2023-04-24T07:44:38;1.17;;;0.40;;
23384;SDS011;11865;45.394;10.978;2023-04-24T07:47:05;0.77;;;0.30;;
23384;SDS011;11865;45.394;10.978;2023-04-24T07:49:33;0.90;;;0.70;;
23384;SDS011;11865;45.394;10.978;2023-04-24T07:52:01;0.95;;;0.28;;
23384;SDS011;11865;45.394;10.978;2023-04-24T07:54:29;1.17;;;0.68;;
23384;SDS011;11865;45.394;10.978;2023-04-24T07:56:56;0.22;;;0.22;;
23384;SDS011;11865;45.394;10.978;2023-04-24T07:59:24;0.50;;;0.30;;
23384;SDS011;11865;45.394;10.978;2023-04-24T08:01:51;2.00;;;0.40;;
23384;SDS011;11865;45.394;10.978;2023-04-24T08:04:19;7.72;;;0.80;;
23384;SDS011;11865;45.394;10.978;2023-04-24T08:06:47;1.08;;;0.40;;
23384;SDS011;11865;45.394;10.978;2023-04-24T08:09:15;0.80;;;0.50;;
23384;SDS011;11865;45.394;10.978;2023-04-24T08:11:43;1.08;;;0.38;;
23384;SDS011;11865;45.394;10.978;2023-04-24T08:14:11;1.52;;;0.50;;
23384;SDS011;11865;45.394;10.978;2023-04-24T08:16:40;6.63;;;0.57;;
23384;SDS011;11865;45.394;10.978;2023-04-24T08:19:08;1.40;;;0.40;;
23384;SDS011;11865;45.394;10.978;2023-04-24T08:21:35;0.85;;;0.50;;
23384;SDS011;11865;45.394;10.978;2023-04-24T08:24:02;1.42;;;0.70;;
23384;SDS011;11865;45.394;10.978;2023-04-24T08:26:33;1.58;;;0.50;;
23384;SDS011;11865;45.394;10.978;2023-04-24T08:29:01;0.93;;;0.52;;
23384;SDS011;11865;45.394;10.978;2023-04-24T08:31:29;1.50;;;0.38;;
23384;SDS011;11865;45.394;10.978;2023-04-24T08:33:56;0.38;;;0.17;;
23384;SDS011;11865;45.394;10.978;2023-04-24T08:36:24;0.22;;;0.20;;
23384;SDS011;11865;45.394;10.978;2023-04-24T08:39:09;5.05;;;0.38;;
23384;SDS011;11865;45.394;10.978;2023-04-24T08:41:37;1.88;;;0.40;;
23384;SDS011;11865;45.394;10.978;2023-04-24T08:44:05;1.25;;;0.30;;
23384;SDS011;11865;45.394;10.978;2023-04-24T08:46:36;0.70;;;0.25;;
23384;SDS011;11865;45.394;10.978;2023-04-24T08:49:04;0.50;;;0.40;;
23384;SDS011;11865;45.394;10.978;2023-04-24T08:51:31;4.07;;;0.68;;
23384;SDS011;11865;45.394;10.978;2023-04-24T08:53:59;0.57;;;0.30;;
23384;SDS011;11865;45.394;10.978;2023-04-24T08:56:29;0.52;;;0.30;;
23384;SDS011;11865;45.394;10.978;2023-04-24T08:58:58;1.40;;;0.52;;
23384;SDS011;11865;45.394;10.978;2023-04-24T09:01:26;1.02;;;0.50;;
23384;SDS011;11865;45.394;10.978;2023-04-24T09:03:55;0.30;;;0.30;;
23384;SDS011;11865;45.394;10.978;2023-04-24T09:06:25;0.75;;;0.43;;
23384;SDS011;11865;45.394;10.978;2023-04-24T09:08:54;1.95;;;0.50;;
23384;SDS011;11865;45.394;10.978;2023-04-24T09:11:23;0.60;;;0.40;;
23384;SDS011;11865;45.394;10.978;2023-04-24T09:13:52;1.27;;;0.63;;
23384;SDS011;11865;45.394;10.978;2023-04-24T09:16:20;0.77;;;0.57;;
23384;SDS011;11865;45.394;10.978;2023-04-24T09:18:50;1.23;;;0.47;;
23384;SDS011;11865;45.394;10.978;2023-04-24T09:21:19;3.10;;;0.88;;
23384;SDS011;11865;45.394;10.978;2023-04-24T09:23:57;0.63;;;0.60;;
23384;SDS011;11865;45.394;10.978;2023-04-24T09:26:28;1.77;;;0.65;;
23384;SDS011;11865;45.394;10.978;2023-04-24T09:28:59;2.13;;;0.80;;
23384;SDS011;11865;45.394;10.978;2023-04-24T09:31:28;3.55;;;0.70;;
23384;SDS011;11865;45.394;10.978;2023-04-24T09:33:57;0.75;;;0.75;;
23384;SDS011;11865;45.394;10.978;2023-04-24T09:36:29;1.25;;;0.90;;
23384;SDS011;11865;45.394;10.978;2023-04-24T09:39:08;1.92;;;0.90;;
23384;SDS011;11865;45.394;10.978;2023-04-24T09:44:20;0.80;;;0.60;;
23384;SDS011;11865;45.394;10.978;2023-04-24T09:46:58;1.08;;;0.80;;
23384;SDS011;11865;45.394;10.978;2023-04-24T09:49:28;1.33;;;0.70;;
23384;SDS011;11865;45.394;10.978;2023-04-24T09:52:04;1.55;;;0.77;;
23384;SDS011;11865;45.394;10.978;2023-04-24T09:54:33;4.55;;;1.48;;
23384;SDS011;11865;45.394;10.978;2023-04-24T09:57:00;3.05;;;1.30;;
23384;SDS011;11865;45.394;10.978;2023-04-24T09:59:29;2.47;;;1.30;;
23384;SDS011;11865;45.394;10.978;2023-04-24T10:01:56;1.60;;;0.98;;
23384;SDS011;11865;45.394;10.978;2023-04-24T10:04:26;3.80;;;1.00;;
23384;SDS011;11865;45.394;10.978;2023-04-24T10:06:56;7.25;;;0.80;;
23384;SDS011;11865;45.394;10.978;2023-04-24T10:09:24;1.27;;;1.00;;
23384;SDS011;11865;45.394;10.978;2023-04-24T10:11:53;1.70;;;0.90;;
23384;SDS011;11865;45.394;10.978;2023-04-24T10:14:25;2.00;;;1.20;;
23384;SDS011;11865;45.394;10.978;2023-04-24T10:16:53;2.45;;;0.90;;
23384;SDS011;11865;45.394;10.978;2023-04-24T10:19:21;1.42;;;0.90;;
23384;SDS011;11865;45.394;10.978;2023-04-24T10:21:52;0.75;;;0.75;;
23384;SDS011;11865;45.394;10.978;2023-04-24T10:24:22;1.17;;;0.93;;
23384;SDS011;11865;45.394;10.978;2023-04-24T10:26:50;1.58;;;1.30;;
23384;SDS011;11865;45.394;10.978;2023-04-24T10:29:18;2.63;;;0.88;;
23384;SDS011;11865;45.394;10.978;2023-04-24T10:31:45;1.52;;;1.10;;
23384;SDS011;11865;45.394;10.978;2023-04-24T10:34:15;2.67;;;1.73;;
23384;SDS011;11865;45.394;10.978;2023-04-24T10:36:48;3.90;;;1.27;;
23384;SDS011;11865;45.394;10.978;2023-04-24T10:39:21;2.75;;;1.80;;
23384;SDS011;11865;45.394;10.978;2023-04-24T10:44:24;3.65;;;2.30;;
23384;SDS011;11865;45.394;10.978;2023-04-24T10:46:55;3.60;;;2.78;;
23384;SDS011;11865;45.394;10.978;2023-04-24T10:49:29;4.53;;;2.97;;
23384;SDS011;11865;45.394;10.978;2023-04-24T10:52:02;4.55;;;3.10;;
23384;SDS011;11865;45.394;10.978;2023-04-24T10:54:42;5.78;;;3.60;;
23384;SDS011;11865;45.394;10.978;2023-04-24T10:59:49;4.50;;;3.10;;
23384;SDS011;11865;45.394;10.978;2023-04-24T11:02:19;5.25;;;3.28;;
23384;SDS011;11865;45.394;10.978;2023-04-24T11:05:03;3.13;;;2.75;;
23384;SDS011;11865;45.394;10.978;2023-04-24T11:10:45;4.53;;;2.55;;
23384;SDS011;11865;45.394;10.978;2023-04-24T11:13:16;6.20;;;2.95;;
23384;SDS011;11865;45.394;10.978;2023-04-24T11:18:59;3.17;;;2.60;;
23384;SDS011;11865;45.394;10.978;2023-04-24T11:21:33;4.15;;;2.30;;
23384;SDS011;11865;45.394;10.978;2023-04-24T11:24:22;4.63;;;2.08;;
23384;SDS011;11865;45.394;10.978;2023-04-24T11:26:53;2.30;;;1.60;;
23384;SDS011;11865;45.394;10.978;2023-04-24T11:29:22;4.20;;;2.17;;
23384;SDS011;11865;45.394;10.978;2023-04-24T11:31:51;2.00;;;1.80;;
23384;SDS011;11865;45.394;10.978;2023-04-24T11:34:19;5.05;;;1.98;;
23384;SDS011;11865;45.394;10.978;2023-04-24T11:36:47;3.13;;;1.80;;
23384;SDS011;11865;45.394;10.978;2023-04-24T11:39:14;2.78;;;1.30;;
23384;SDS011;11865;45.394;10.978;2023-04-24T11:41:42;2.40;;;1.38;;
23384;SDS011;11865;45.394;10.978;2023-04-24T11:44:09;2.90;;;1.30;;
23384;SDS011;11865;45.394;10.978;2023-04-24T11:46:38;1.63;;;1.35;;
23384;SDS011;11865;45.394;10.978;2023-04-24T11:49:07;2.72;;;1.70;;
23384;SDS011;11865;45.394;10.978;2023-04-24T11:51:35;2.08;;;1.48;;
23384;SDS011;11865;45.394;10.978;2023-04-24T11:54:17;3.10;;;1.35;;
23384;SDS011;11865;45.394;10.978;2023-04-24T11:56:44;1.60;;;1.25;;
23384;SDS011;11865;45.394;10.978;2023-04-24T11:59:13;2.20;;;1.92;;
23384;SDS011;11865;45.394;10.978;2023-04-24T12:01:44;2.78;;;2.28;;
23384;SDS011;11865;45.394;10.978;2023-04-24T12:04:13;5.25;;;2.85;;
23384;SDS011;11865;45.394;10.978;2023-04-24T12:07:01;2.90;;;1.95;;
23384;SDS011;11865;45.394;10.978;2023-04-24T12:12:14;4.00;;;2.50;;
23384;SDS011;11865;45.394;10.978;2023-04-24T12:17:14;3.58;;;1.80;;
23384;SDS011;11865;45.394;10.978;2023-04-24T12:19:45;2.67;;;2.38;;
23384;SDS011;11865;45.394;10.978;2023-04-24T12:22:14;2.63;;;2.00;;
23384;SDS011;11865;45.394;10.978;2023-04-24T12:24:57;2.63;;;1.45;;
23384;SDS011;11865;45.394;10.978;2023-04-24T12:27:30;3.45;;;2.28;;
23384;SDS011;11865;45.394;10.978;2023-04-24T12:29:59;5.60;;;2.47;;
23384;SDS011;11865;45.394;10.978;2023-04-24T12:32:28;2.22;;;1.77;;
23384;SDS011;11865;45.394;10.978;2023-04-24T12:34:56;3.70;;;2.13;;
23384;SDS011;11865;45.394;10.978;2023-04-24T12:37:24;4.32;;;1.98;;
23384;SDS011;11865;45.394;10.978;2023-04-24T12:42:46;3.28;;;2.05;;
23384;SDS011;11865;45.394;10.978;2023-04-24T12:45:15;2.65;;;1.58;;
23384;SDS011;11865;45.394;10.978;2023-04-24T12:47:45;4.65;;;1.42;;
23384;SDS011;11865;45.394;10.978;2023-04-24T12:50:13;2.15;;;1.67;;
23384;SDS011;11865;45.394;10.978;2023-04-24T12:52:42;2.03;;;1.23;;
23384;SDS011;11865;45.394;10.978;2023-04-24T12:55:10;2.63;;;1.38;;
23384;SDS011;11865;45.394;10.978;2023-04-24T12:57:39;1.55;;;1.30;;
23384;SDS011;11865;45.394;10.978;2023-04-24T13:00:07;1.52;;;1.20;;
23384;SDS011;11865;45.394;10.978;2023-04-24T13:02:36;1.45;;;1.30;;
23384;SDS011;11865;45.394;10.978;2023-04-24T13:05:04;2.97;;;1.88;;
23384;SDS011;11865;45.394;10.978;2023-04-24T13:07:32;1.63;;;1.23;;
23384;SDS011;11865;45.394;10.978;2023-04-24T13:10:00;2.50;;;1.45;;
23384;SDS011;11865;45.394;10.978;2023-04-24T13:12:27;2.72;;;1.20;;
23384;SDS011;11865;45.394;10.978;2023-04-24T13:14:55;2.28;;;1.35;;
23384;SDS011;11865;45.394;10.978;2023-04-24T13:17:22;4.07;;;1.75;;
23384;SDS011;11865;45.394;10.978;2023-04-24T13:19:50;1.70;;;1.60;;
23384;SDS011;11865;45.394;10.978;2023-04-24T13:22:18;6.07;;;2.10;;
23384;SDS011;11865;45.394;10.978;2023-04-24T13:24:45;2.78;;;2.28;;
23384;SDS011;11865;45.394;10.978;2023-04-24T13:27:15;3.22;;;2.70;;
23384;SDS011;11865;45.394;10.978;2023-04-24T13:29:43;3.63;;;2.45;;
23384;SDS011;11865;45.394;10.978;2023-04-24T13:32:11;2.97;;;2.20;;
23384;SDS011;11865;45.394;10.978;2023-04-24T13:34:38;3.78;;;2.72;;
23384;SDS011;11865;45.394;10.978;2023-04-24T13:37:06;3.17;;;2.78;;
23384;SDS011;11865;45.394;10.978;2023-04-24T13:39:35;6.25;;;2.63;;
23384;SDS011;11865;45.394;10.978;2023-04-24T13:42:02;3.70;;;2.70;;
23384;SDS011;11865;45.394;10.978;2023-04-24T13:44:31;5.25;;;2.60;;
23384;SDS011;11865;45.394;10.978;2023-04-24T13:46:58;2.90;;;2.47;;
23384;SDS011;11865;45.394;10.978;2023-04-24T13:49:26;4.97;;;2.17;;
23384;SDS011;11865;45.394;10.978;2023-04-24T13:51:54;4.40;;;2.40;;
23384;SDS011;11865;45.394;10.978;2023-04-24T13:54:22;3.40;;;2.05;;
23384;SDS011;11865;45.394;10.978;2023-04-24T13:56:52;4.32;;;1.90;;
23384;SDS011;11865;45.394;10.978;2023-04-24T13:59:20;2.80;;;2.05;;
23384;SDS011;11865;45.394;10.978;2023-04-24T14:01:48;3.67;;;1.80;;
23384;SDS011;11865;45.394;10.978;2023-04-24T14:04:16;2.17;;;1.98;;
23384;SDS011;11865;45.394;10.978;2023-04-24T14:06:44;2.67;;;1.33;;
23384;SDS011;11865;45.394;10.978;2023-04-24T14:09:11;1.50;;;1.08;;
23384;SDS011;11865;45.394;10.978;2023-04-24T14:11:39;1.83;;;1.00;;
23384;SDS011;11865;45.394;10.978;2023-04-24T14:14:07;1.67;;;1.38;;
23384;SDS011;11865;45.394;10.978;2023-04-24T14:16:35;3.35;;;1.80;;
23384;SDS011;11865;45.394;10.978;2023-04-24T14:19:02;3.03;;;1.83;;
23384;SDS011;11865;45.394;10.978;2023-04-24T14:21:32;2.97;;;2.60;;
23384;SDS011;11865;45.394;10.978;2023-04-24T14:24:00;3.95;;;2.88;;
23384;SDS011;11865;45.394;10.978;2023-04-24T14:26:27;3.85;;;3.15;;
23384;SDS011;11865;45.394;10.978;2023-04-24T14:28:54;4.22;;;3.17;;
23384;SDS011;11865;45.394;10.978;2023-04-24T14:31:37;4.15;;;3.08;;
23384;SDS011;11865;45.394;10.978;2023-04-24T14:34:04;5.25;;;3.35;;
23384;SDS011;11865;45.394;10.978;2023-04-24T14:36:32;6.80;;;3.53;;
23384;SDS011;11865;45.394;10.978;2023-04-24T14:38:59;6.10;;;3.28;;
23384;SDS011;11865;45.394;10.978;2023-04-24T14:41:26;4.25;;;3.17;;
23384;SDS011;11865;45.394;10.978;2023-04-24T14:43:54;4.28;;;3.45;;
23384;SDS011;11865;45.394;10.978;2023-04-24T14:46:21;4.45;;;4.05;;
23384;SDS011;11865;45.394;10.978;2023-04-24T14:48:49;5.55;;;4.40;;
23384;SDS011;11865;45.394;10.978;2023-04-24T14:51:16;9.73;;;4.72;;
23384;SDS011;11865;45.394;10.978;2023-04-24T14:53:44;6.43;;;3.78;;
23384;SDS011;11865;45.394;10.978;2023-04-24T14:56:13;4.82;;;3.70;;
23384;SDS011;11865;45.394;10.978;2023-04-24T14:58:42;6.95;;;3.58;;
23384;SDS011;11865;45.394;10.978;2023-04-24T15:01:10;6.88;;;4.20;;